sensor_id;sensor_type;location;lat;lon;timestamp;P1;durP1;ratioP1;P2;durP2;ratioP2
31112;SDS011;17763;48.730;9.136;2023-05-21T00:00:11;25.35;;;20.70;;
31112;SDS011;17763;48.730;9.136;2023-05-21T00:02:42;23.15;;;18.70;;
31112;SDS011;17763;48.730;9.136;2023-05-21T00:05:08;27.77;;;19.70;;
31112;SDS011;17763;48.730;9.136;2023-05-21T00:07:39;26.80;;;20.20;;
31112;SDS011;17763;48.730;9.136;2023-05-21T00:10:08;24.65;;;20.27;;
31112;SDS011;17763;48.730;9.136;2023-05-21T00:12:36;24.08;;;18.75;;
31112;SDS011;17763;48.730;9.136;2023-05-21T00:15:02;24.60;;;19.38;;
31112;SDS011;17763;48.730;9.136;2023-05-21T00:17:28;22.65;;;19.08;;
31112;SDS011;17763;48.730;9.136;2023-05-21T00:19:54;22.63;;;20.23;;
31112;SDS011;17763;48.730;9.136;2023-05-21T00:22:24;25.42;;;20.27;;
31112;SDS011;17763;48.730;9.136;2023-05-21T00:24:49;22.85;;;19.85;;
31112;SDS011;17763;48.730;9.136;2023-05-21T00:27:15;21.75;;;18.48;;
31112;SDS011;17763;48.730;9.136;2023-05-21T00:29:41;25.38;;;20.40;;
31112;SDS011;17763;48.730;9.136;2023-05-21T00:32:09;21.92;;;19.08;;
31112;SDS011;17763;48.730;9.136;2023-05-21T00:34:37;23.80;;;20.63;;
31112;SDS011;17763;48.730;9.136;2023-05-21T00:37:02;25.10;;;20.25;;
31112;SDS011;17763;48.730;9.136;2023-05-21T00:39:30;27.30;;;20.90;;
31112;SDS011;17763;48.730;9.136;2023-05-21T00:41:56;23.67;;;20.77;;
31112;SDS011;17763;48.730;9.136;2023-05-21T00:44:22;25.40;;;21.02;;
31112;SDS011;17763;48.730;9.136;2023-05-21T00:46:48;25.98;;;21.27;;
31112;SDS011;17763;48.730;9.136;2023-05-21T00:49:17;23.65;;;20.70;;
31112;SDS011;17763;48.730;9.136;2023-05-21T00:51:46;28.08;;;20.90;;
31112;SDS011;17763;48.730;9.136;2023-05-21T00:54:12;27.90;;;22.05;;
31112;SDS011;17763;48.730;9.136;2023-05-21T00:56:38;25.27;;;21.17;;
31112;SDS011;17763;48.730;9.136;2023-05-21T00:59:04;27.15;;;22.33;;
31112;SDS011;17763;48.730;9.136;2023-05-21T01:01:30;24.35;;;20.45;;
31112;SDS011;17763;48.730;9.136;2023-05-21T01:04:00;28.08;;;22.10;;
31112;SDS011;17763;48.730;9.136;2023-05-21T01:06:29;28.80;;;21.05;;
31112;SDS011;17763;48.730;9.136;2023-05-21T01:09:00;29.25;;;21.67;;
31112;SDS011;17763;48.730;9.136;2023-05-21T01:14:11;29.67;;;22.20;;
31112;SDS011;17763;48.730;9.136;2023-05-21T01:16:41;27.33;;;22.33;;
31112;SDS011;17763;48.730;9.136;2023-05-21T01:19:14;28.23;;;21.73;;
31112;SDS011;17763;48.730;9.136;2023-05-21T01:21:43;31.10;;;22.27;;
31112;SDS011;17763;48.730;9.136;2023-05-21T01:24:14;29.27;;;22.10;;
31112;SDS011;17763;48.730;9.136;2023-05-21T01:26:39;31.58;;;22.25;;
31112;SDS011;17763;48.730;9.136;2023-05-21T01:29:09;26.58;;;22.50;;
31112;SDS011;17763;48.730;9.136;2023-05-21T01:32:01;28.92;;;23.35;;
31112;SDS011;17763;48.730;9.136;2023-05-21T01:38:01;27.45;;;22.60;;
31112;SDS011;17763;48.730;9.136;2023-05-21T01:40:10;28.40;;;23.48;;
31112;SDS011;17763;48.730;9.136;2023-05-21T01:43:03;26.98;;;23.00;;
31112;SDS011;17763;48.730;9.136;2023-05-21T01:45:41;35.30;;;23.50;;
31112;SDS011;17763;48.730;9.136;2023-05-21T01:48:08;30.60;;;23.67;;
31112;SDS011;17763;48.730;9.136;2023-05-21T01:50:36;31.65;;;24.05;;
31112;SDS011;17763;48.730;9.136;2023-05-21T01:53:03;27.52;;;23.00;;
31112;SDS011;17763;48.730;9.136;2023-05-21T01:55:30;29.50;;;24.80;;
31112;SDS011;17763;48.730;9.136;2023-05-21T01:57:58;32.10;;;24.75;;
31112;SDS011;17763;48.730;9.136;2023-05-21T02:00:25;29.67;;;24.38;;
31112;SDS011;17763;48.730;9.136;2023-05-21T02:02:53;31.52;;;25.42;;
31112;SDS011;17763;48.730;9.136;2023-05-21T02:05:19;32.72;;;25.80;;
31112;SDS011;17763;48.730;9.136;2023-05-21T02:07:44;32.63;;;25.98;;
31112;SDS011;17763;48.730;9.136;2023-05-21T02:10:11;30.02;;;23.75;;
31112;SDS011;17763;48.730;9.136;2023-05-21T02:12:37;30.40;;;23.42;;
31112;SDS011;17763;48.730;9.136;2023-05-21T02:15:03;29.45;;;24.13;;
31112;SDS011;17763;48.730;9.136;2023-05-21T02:17:34;31.50;;;24.42;;
31112;SDS011;17763;48.730;9.136;2023-05-21T02:20:03;31.20;;;25.60;;
31112;SDS011;17763;48.730;9.136;2023-05-21T02:22:39;37.03;;;26.70;;
31112;SDS011;17763;48.730;9.136;2023-05-21T02:25:06;32.22;;;25.27;;
31112;SDS011;17763;48.730;9.136;2023-05-21T02:27:42;33.28;;;25.52;;
31112;SDS011;17763;48.730;9.136;2023-05-21T02:30:09;31.13;;;24.70;;
31112;SDS011;17763;48.730;9.136;2023-05-21T02:32:36;36.47;;;25.63;;
31112;SDS011;17763;48.730;9.136;2023-05-21T02:35:06;33.60;;;26.23;;
31112;SDS011;17763;48.730;9.136;2023-05-21T02:37:35;31.75;;;24.88;;
31112;SDS011;17763;48.730;9.136;2023-05-21T02:40:05;33.00;;;25.48;;
31112;SDS011;17763;48.730;9.136;2023-05-21T02:42:32;34.75;;;24.95;;
31112;SDS011;17763;48.730;9.136;2023-05-21T02:44:58;30.67;;;25.65;;
31112;SDS011;17763;48.730;9.136;2023-05-21T02:47:24;31.95;;;26.30;;
31112;SDS011;17763;48.730;9.136;2023-05-21T02:49:50;33.67;;;25.35;;
31112;SDS011;17763;48.730;9.136;2023-05-21T02:52:19;34.55;;;26.98;;
31112;SDS011;17763;48.730;9.136;2023-05-21T02:54:48;31.42;;;26.15;;
31112;SDS011;17763;48.730;9.136;2023-05-21T02:57:14;33.38;;;25.27;;
31112;SDS011;17763;48.730;9.136;2023-05-21T02:59:42;34.35;;;26.33;;
31112;SDS011;17763;48.730;9.136;2023-05-21T03:02:09;34.78;;;27.92;;
31112;SDS011;17763;48.730;9.136;2023-05-21T03:04:37;37.05;;;26.60;;
31112;SDS011;17763;48.730;9.136;2023-05-21T03:07:03;33.05;;;26.23;;
31112;SDS011;17763;48.730;9.136;2023-05-21T03:09:30;33.20;;;26.17;;
31112;SDS011;17763;48.730;9.136;2023-05-21T03:11:55;33.65;;;28.05;;
31112;SDS011;17763;48.730;9.136;2023-05-21T03:14:21;37.67;;;28.13;;
31112;SDS011;17763;48.730;9.136;2023-05-21T03:16:48;38.55;;;29.10;;
31112;SDS011;17763;48.730;9.136;2023-05-21T03:19:19;36.45;;;27.00;;
31112;SDS011;17763;48.730;9.136;2023-05-21T03:21:45;36.83;;;26.95;;
31112;SDS011;17763;48.730;9.136;2023-05-21T03:24:15;38.72;;;27.02;;
31112;SDS011;17763;48.730;9.136;2023-05-21T03:26:43;36.42;;;27.90;;
31112;SDS011;17763;48.730;9.136;2023-05-21T03:29:09;36.20;;;27.92;;
31112;SDS011;17763;48.730;9.136;2023-05-21T03:31:35;33.63;;;26.42;;
31112;SDS011;17763;48.730;9.136;2023-05-21T03:34:00;34.08;;;27.05;;
31112;SDS011;17763;48.730;9.136;2023-05-21T03:36:26;36.53;;;27.15;;
31112;SDS011;17763;48.730;9.136;2023-05-21T03:39:00;35.05;;;27.50;;
31112;SDS011;17763;48.730;9.136;2023-05-21T03:41:27;33.47;;;27.52;;
31112;SDS011;17763;48.730;9.136;2023-05-21T03:43:53;37.70;;;27.17;;
31112;SDS011;17763;48.730;9.136;2023-05-21T03:46:19;32.85;;;27.05;;
31112;SDS011;17763;48.730;9.136;2023-05-21T03:48:48;36.47;;;28.10;;
31112;SDS011;17763;48.730;9.136;2023-05-21T03:51:16;38.22;;;28.05;;
31112;SDS011;17763;48.730;9.136;2023-05-21T03:53:42;35.13;;;28.52;;
31112;SDS011;17763;48.730;9.136;2023-05-21T03:56:09;34.75;;;26.27;;
31112;SDS011;17763;48.730;9.136;2023-05-21T03:58:35;33.90;;;27.33;;
31112;SDS011;17763;48.730;9.136;2023-05-21T04:01:06;34.38;;;26.80;;
31112;SDS011;17763;48.730;9.136;2023-05-21T04:03:34;36.10;;;27.92;;
31112;SDS011;17763;48.730;9.136;2023-05-21T04:06:01;34.75;;;27.08;;
31112;SDS011;17763;48.730;9.136;2023-05-21T04:08:27;37.00;;;28.75;;
31112;SDS011;17763;48.730;9.136;2023-05-21T04:10:53;33.60;;;27.27;;
31112;SDS011;17763;48.730;9.136;2023-05-21T04:13:19;33.55;;;25.85;;
31112;SDS011;17763;48.730;9.136;2023-05-21T04:15:45;35.83;;;27.98;;
31112;SDS011;17763;48.730;9.136;2023-05-21T04:18:11;35.45;;;25.92;;
31112;SDS011;17763;48.730;9.136;2023-05-21T04:20:41;34.47;;;26.95;;
31112;SDS011;17763;48.730;9.136;2023-05-21T04:23:09;32.85;;;26.92;;
31112;SDS011;17763;48.730;9.136;2023-05-21T04:25:34;34.08;;;27.05;;
31112;SDS011;17763;48.730;9.136;2023-05-21T04:28:03;34.05;;;26.63;;
31112;SDS011;17763;48.730;9.136;2023-05-21T04:30:28;39.28;;;29.15;;
31112;SDS011;17763;48.730;9.136;2023-05-21T04:32:54;36.50;;;27.17;;
31112;SDS011;17763;48.730;9.136;2023-05-21T04:35:24;36.60;;;28.25;;
31112;SDS011;17763;48.730;9.136;2023-05-21T04:37:50;35.95;;;27.80;;
31112;SDS011;17763;48.730;9.136;2023-05-21T04:40:16;35.67;;;28.08;;
31112;SDS011;17763;48.730;9.136;2023-05-21T04:42:48;42.72;;;29.35;;
31112;SDS011;17763;48.730;9.136;2023-05-21T04:45:17;33.63;;;27.55;;
31112;SDS011;17763;48.730;9.136;2023-05-21T04:47:50;41.17;;;29.27;;
31112;SDS011;17763;48.730;9.136;2023-05-21T04:50:16;36.75;;;28.65;;
31112;SDS011;17763;48.730;9.136;2023-05-21T04:52:44;35.58;;;27.77;;
31112;SDS011;17763;48.730;9.136;2023-05-21T04:55:12;35.15;;;27.65;;
31112;SDS011;17763;48.730;9.136;2023-05-21T04:57:38;35.78;;;28.80;;
31112;SDS011;17763;48.730;9.136;2023-05-21T05:00:04;40.22;;;28.98;;
31112;SDS011;17763;48.730;9.136;2023-05-21T05:02:31;37.40;;;27.67;;
31112;SDS011;17763;48.730;9.136;2023-05-21T05:04:57;36.50;;;28.73;;
31112;SDS011;17763;48.730;9.136;2023-05-21T05:07:23;35.72;;;28.58;;
31112;SDS011;17763;48.730;9.136;2023-05-21T05:09:49;36.50;;;27.40;;
31112;SDS011;17763;48.730;9.136;2023-05-21T05:12:15;37.90;;;28.90;;
31112;SDS011;17763;48.730;9.136;2023-05-21T05:14:43;36.95;;;28.77;;
31112;SDS011;17763;48.730;9.136;2023-05-21T05:17:12;37.15;;;27.92;;
31112;SDS011;17763;48.730;9.136;2023-05-21T05:19:40;36.95;;;28.00;;
31112;SDS011;17763;48.730;9.136;2023-05-21T05:22:06;30.33;;;25.52;;
31112;SDS011;17763;48.730;9.136;2023-05-21T05:24:34;34.55;;;25.65;;
31112;SDS011;17763;48.730;9.136;2023-05-21T05:27:00;36.00;;;27.65;;
31112;SDS011;17763;48.730;9.136;2023-05-21T05:29:26;36.55;;;26.92;;
31112;SDS011;17763;48.730;9.136;2023-05-21T05:31:52;37.70;;;28.30;;
31112;SDS011;17763;48.730;9.136;2023-05-21T05:34:20;34.65;;;26.15;;
31112;SDS011;17763;48.730;9.136;2023-05-21T05:36:50;34.00;;;27.92;;
31112;SDS011;17763;48.730;9.136;2023-05-21T05:39:16;35.78;;;26.38;;
31112;SDS011;17763;48.730;9.136;2023-05-21T05:41:42;33.97;;;27.35;;
31112;SDS011;17763;48.730;9.136;2023-05-21T05:44:07;31.10;;;25.40;;
31112;SDS011;17763;48.730;9.136;2023-05-21T05:46:35;39.70;;;26.58;;
31112;SDS011;17763;48.730;9.136;2023-05-21T05:49:01;30.02;;;25.27;;
31112;SDS011;17763;48.730;9.136;2023-05-21T05:51:27;31.67;;;25.50;;
31112;SDS011;17763;48.730;9.136;2023-05-21T05:53:54;30.92;;;25.95;;
31112;SDS011;17763;48.730;9.136;2023-05-21T05:56:19;30.15;;;24.73;;
31112;SDS011;17763;48.730;9.136;2023-05-21T05:58:50;35.67;;;24.77;;
31112;SDS011;17763;48.730;9.136;2023-05-21T06:01:16;29.30;;;24.48;;
31112;SDS011;17763;48.730;9.136;2023-05-21T06:03:43;34.28;;;26.27;;
31112;SDS011;17763;48.730;9.136;2023-05-21T06:06:08;30.17;;;25.73;;
31112;SDS011;17763;48.730;9.136;2023-05-21T06:08:35;28.42;;;24.33;;
31112;SDS011;17763;48.730;9.136;2023-05-21T06:11:01;28.85;;;25.60;;
31112;SDS011;17763;48.730;9.136;2023-05-21T06:13:29;32.90;;;25.98;;
31112;SDS011;17763;48.730;9.136;2023-05-21T06:15:57;32.47;;;26.25;;
31112;SDS011;17763;48.730;9.136;2023-05-21T06:18:25;32.50;;;25.10;;
31112;SDS011;17763;48.730;9.136;2023-05-21T06:20:55;30.70;;;23.52;;
31112;SDS011;17763;48.730;9.136;2023-05-21T06:23:21;33.40;;;24.80;;
31112;SDS011;17763;48.730;9.136;2023-05-21T06:25:47;30.50;;;24.13;;
31112;SDS011;17763;48.730;9.136;2023-05-21T06:28:12;29.65;;;25.40;;
31112;SDS011;17763;48.730;9.136;2023-05-21T06:30:38;31.50;;;24.45;;
31112;SDS011;17763;48.730;9.136;2023-05-21T06:33:07;31.60;;;25.13;;
31112;SDS011;17763;48.730;9.136;2023-05-21T06:35:35;27.83;;;22.85;;
31112;SDS011;17763;48.730;9.136;2023-05-21T06:38:01;27.30;;;22.60;;
31112;SDS011;17763;48.730;9.136;2023-05-21T06:40:29;29.55;;;23.83;;
31112;SDS011;17763;48.730;9.136;2023-05-21T06:42:55;26.85;;;22.55;;
31112;SDS011;17763;48.730;9.136;2023-05-21T06:45:21;30.60;;;22.75;;
31112;SDS011;17763;48.730;9.136;2023-05-21T06:47:47;28.58;;;23.08;;
31112;SDS011;17763;48.730;9.136;2023-05-21T06:50:16;28.55;;;24.00;;
31112;SDS011;17763;48.730;9.136;2023-05-21T06:52:41;25.80;;;22.67;;
31112;SDS011;17763;48.730;9.136;2023-05-21T06:55:10;25.27;;;20.77;;
31112;SDS011;17763;48.730;9.136;2023-05-21T06:57:36;26.95;;;21.77;;
31112;SDS011;17763;48.730;9.136;2023-05-21T07:00:02;26.13;;;22.05;;
31112;SDS011;17763;48.730;9.136;2023-05-21T07:02:29;27.85;;;22.42;;
31112;SDS011;17763;48.730;9.136;2023-05-21T07:04:55;29.02;;;24.55;;
31112;SDS011;17763;48.730;9.136;2023-05-21T07:07:20;32.08;;;23.40;;
31112;SDS011;17763;48.730;9.136;2023-05-21T07:09:46;30.13;;;23.83;;
31112;SDS011;17763;48.730;9.136;2023-05-21T07:12:12;25.80;;;22.25;;
31112;SDS011;17763;48.730;9.136;2023-05-21T07:14:37;23.38;;;20.65;;
31112;SDS011;17763;48.730;9.136;2023-05-21T07:17:06;26.52;;;20.80;;
31112;SDS011;17763;48.730;9.136;2023-05-21T07:19:32;25.52;;;20.33;;
31112;SDS011;17763;48.730;9.136;2023-05-21T07:22:00;26.60;;;22.15;;
31112;SDS011;17763;48.730;9.136;2023-05-21T07:24:26;22.52;;;20.13;;
31112;SDS011;17763;48.730;9.136;2023-05-21T07:26:52;22.10;;;19.08;;
31112;SDS011;17763;48.730;9.136;2023-05-21T07:29:17;20.75;;;18.55;;
31112;SDS011;17763;48.730;9.136;2023-05-21T07:31:43;21.98;;;19.30;;
31112;SDS011;17763;48.730;9.136;2023-05-21T07:34:08;20.42;;;17.25;;
31112;SDS011;17763;48.730;9.136;2023-05-21T07:36:39;20.27;;;16.73;;
31112;SDS011;17763;48.730;9.136;2023-05-21T07:39:04;18.77;;;15.90;;
31112;SDS011;17763;48.730;9.136;2023-05-21T07:41:30;16.58;;;14.85;;
31112;SDS011;17763;48.730;9.136;2023-05-21T07:43:56;17.92;;;15.43;;
31112;SDS011;17763;48.730;9.136;2023-05-21T07:46:22;16.05;;;14.13;;
31112;SDS011;17763;48.730;9.136;2023-05-21T07:48:50;19.58;;;15.52;;
31112;SDS011;17763;48.730;9.136;2023-05-21T07:51:16;16.13;;;14.48;;
31112;SDS011;17763;48.730;9.136;2023-05-21T07:53:44;14.45;;;13.05;;
31112;SDS011;17763;48.730;9.136;2023-05-21T07:56:10;17.55;;;15.75;;
31112;SDS011;17763;48.730;9.136;2023-05-21T07:58:40;18.00;;;15.45;;
31112;SDS011;17763;48.730;9.136;2023-05-21T08:01:10;15.35;;;13.85;;
31112;SDS011;17763;48.730;9.136;2023-05-21T08:03:38;16.17;;;14.35;;
31112;SDS011;17763;48.730;9.136;2023-05-21T08:06:04;16.63;;;14.55;;
31112;SDS011;17763;48.730;9.136;2023-05-21T08:08:32;15.98;;;14.27;;
31112;SDS011;17763;48.730;9.136;2023-05-21T08:11:00;15.35;;;13.85;;
31112;SDS011;17763;48.730;9.136;2023-05-21T08:13:26;15.73;;;14.13;;
31112;SDS011;17763;48.730;9.136;2023-05-21T08:15:51;17.05;;;14.77;;
31112;SDS011;17763;48.730;9.136;2023-05-21T08:18:17;16.50;;;12.93;;
31112;SDS011;17763;48.730;9.136;2023-05-21T08:20:43;16.50;;;12.68;;
31112;SDS011;17763;48.730;9.136;2023-05-21T08:23:09;15.88;;;14.18;;
31112;SDS011;17763;48.730;9.136;2023-05-21T08:25:34;15.05;;;13.25;;
31112;SDS011;17763;48.730;9.136;2023-05-21T08:28:00;15.52;;;13.00;;
31112;SDS011;17763;48.730;9.136;2023-05-21T08:30:26;13.85;;;12.50;;
31112;SDS011;17763;48.730;9.136;2023-05-21T08:32:54;14.95;;;13.30;;
31112;SDS011;17763;48.730;9.136;2023-05-21T08:35:22;14.43;;;12.80;;
31112;SDS011;17763;48.730;9.136;2023-05-21T08:37:48;14.77;;;13.27;;
31112;SDS011;17763;48.730;9.136;2023-05-21T08:40:13;13.57;;;12.20;;
31112;SDS011;17763;48.730;9.136;2023-05-21T08:42:46;15.50;;;12.60;;
31112;SDS011;17763;48.730;9.136;2023-05-21T08:45:14;13.52;;;12.13;;
31112;SDS011;17763;48.730;9.136;2023-05-21T08:47:54;15.10;;;13.52;;
31112;SDS011;17763;48.730;9.136;2023-05-21T08:52:48;19.90;;;16.05;;
31112;SDS011;17763;48.730;9.136;2023-05-21T08:55:14;19.27;;;17.05;;
31112;SDS011;17763;48.730;9.136;2023-05-21T08:57:41;19.20;;;16.70;;
31112;SDS011;17763;48.730;9.136;2023-05-21T09:00:08;17.50;;;15.48;;
31112;SDS011;17763;48.730;9.136;2023-05-21T09:02:34;17.52;;;15.77;;
31112;SDS011;17763;48.730;9.136;2023-05-21T09:05:04;16.67;;;15.00;;
31112;SDS011;17763;48.730;9.136;2023-05-21T09:07:33;17.27;;;13.85;;
31112;SDS011;17763;48.730;9.136;2023-05-21T09:10:07;16.63;;;14.77;;
31112;SDS011;17763;48.730;9.136;2023-05-21T09:12:40;17.83;;;16.00;;
31112;SDS011;17763;48.730;9.136;2023-05-21T09:15:08;14.98;;;13.50;;
31112;SDS011;17763;48.730;9.136;2023-05-21T09:17:36;18.13;;;16.17;;
31112;SDS011;17763;48.730;9.136;2023-05-21T09:25:06;17.30;;;15.50;;
31112;SDS011;17763;48.730;9.136;2023-05-21T09:27:35;18.08;;;16.02;;
31112;SDS011;17763;48.730;9.136;2023-05-21T09:30:02;18.55;;;16.55;;
31112;SDS011;17763;48.730;9.136;2023-05-21T09:32:34;18.45;;;16.60;;
31112;SDS011;17763;48.730;9.136;2023-05-21T09:35:07;20.73;;;17.73;;
31112;SDS011;17763;48.730;9.136;2023-05-21T09:37:43;18.05;;;16.17;;
31112;SDS011;17763;48.730;9.136;2023-05-21T09:42:39;21.42;;;16.63;;
31112;SDS011;17763;48.730;9.136;2023-05-21T09:45:09;20.60;;;18.37;;
31112;SDS011;17763;48.730;9.136;2023-05-21T09:47:42;18.45;;;16.35;;
31112;SDS011;17763;48.730;9.136;2023-05-21T09:50:11;17.95;;;15.38;;
31112;SDS011;17763;48.730;9.136;2023-05-21T09:52:48;20.20;;;16.85;;
31112;SDS011;17763;48.730;9.136;2023-05-21T09:55:16;20.85;;;17.00;;
31112;SDS011;17763;48.730;9.136;2023-05-21T09:57:46;24.48;;;16.15;;
31112;SDS011;17763;48.730;9.136;2023-05-21T10:00:19;16.70;;;14.68;;
31112;SDS011;17763;48.730;9.136;2023-05-21T10:02:55;16.75;;;15.13;;
31112;SDS011;17763;48.730;9.136;2023-05-21T10:05:29;18.65;;;16.52;;
31112;SDS011;17763;48.730;9.136;2023-05-21T10:08:04;17.55;;;15.55;;
31112;SDS011;17763;48.730;9.136;2023-05-21T10:10:35;17.13;;;15.43;;
31112;SDS011;17763;48.730;9.136;2023-05-21T10:13:08;17.00;;;15.18;;
31112;SDS011;17763;48.730;9.136;2023-05-21T10:15:37;19.50;;;17.05;;
31112;SDS011;17763;48.730;9.136;2023-05-21T10:18:07;16.75;;;14.05;;
31112;SDS011;17763;48.730;9.136;2023-05-21T10:20:33;15.38;;;13.88;;
31112;SDS011;17763;48.730;9.136;2023-05-21T10:23:00;18.08;;;14.82;;
31112;SDS011;17763;48.730;9.136;2023-05-21T10:25:29;16.15;;;14.45;;
31112;SDS011;17763;48.730;9.136;2023-05-21T10:27:56;16.92;;;15.25;;
31112;SDS011;17763;48.730;9.136;2023-05-21T10:30:22;15.18;;;13.60;;
31112;SDS011;17763;48.730;9.136;2023-05-21T10:32:48;16.67;;;14.88;;
31112;SDS011;17763;48.730;9.136;2023-05-21T10:35:15;16.15;;;14.48;;
31112;SDS011;17763;48.730;9.136;2023-05-21T10:37:44;18.15;;;13.18;;
31112;SDS011;17763;48.730;9.136;2023-05-21T10:40:10;15.07;;;13.50;;
31112;SDS011;17763;48.730;9.136;2023-05-21T10:43:11;15.13;;;13.52;;
31112;SDS011;17763;48.730;9.136;2023-05-21T10:51:52;13.00;;;11.80;;
31112;SDS011;17763;48.730;9.136;2023-05-21T11:00:08;12.27;;;10.68;;
31112;SDS011;17763;48.730;9.136;2023-05-21T11:02:36;11.90;;;10.85;;
31112;SDS011;17763;48.730;9.136;2023-05-21T11:05:02;11.68;;;10.55;;
31112;SDS011;17763;48.730;9.136;2023-05-21T11:10:38;15.00;;;12.65;;
31112;SDS011;17763;48.730;9.136;2023-05-21T11:13:09;12.68;;;11.38;;
31112;SDS011;17763;48.730;9.136;2023-05-21T11:21:05;13.02;;;11.70;;
31112;SDS011;17763;48.730;9.136;2023-05-21T11:26:24;13.02;;;11.73;;
31112;SDS011;17763;48.730;9.136;2023-05-21T11:31:34;14.02;;;12.13;;
31112;SDS011;17763;48.730;9.136;2023-05-21T11:36:47;13.88;;;12.43;;
31112;SDS011;17763;48.730;9.136;2023-05-21T11:39:16;13.15;;;11.93;;
31112;SDS011;17763;48.730;9.136;2023-05-21T11:47:03;12.88;;;11.60;;
31112;SDS011;17763;48.730;9.136;2023-05-21T11:49:32;13.45;;;12.07;;
31112;SDS011;17763;48.730;9.136;2023-05-21T11:52:02;13.02;;;11.63;;
31112;SDS011;17763;48.730;9.136;2023-05-21T11:54:39;11.95;;;10.88;;
31112;SDS011;17763;48.730;9.136;2023-05-21T11:57:07;13.25;;;11.95;;
31112;SDS011;17763;48.730;9.136;2023-05-21T11:59:33;12.35;;;11.10;;
31112;SDS011;17763;48.730;9.136;2023-05-21T12:01:59;12.63;;;11.50;;
31112;SDS011;17763;48.730;9.136;2023-05-21T12:04:32;11.13;;;10.05;;
31112;SDS011;17763;48.730;9.136;2023-05-21T12:07:05;12.25;;;11.13;;
31112;SDS011;17763;48.730;9.136;2023-05-21T12:09:40;13.73;;;12.25;;
31112;SDS011;17763;48.730;9.136;2023-05-21T12:12:10;12.65;;;10.95;;
31112;SDS011;17763;48.730;9.136;2023-05-21T12:14:38;12.82;;;11.52;;
31112;SDS011;17763;48.730;9.136;2023-05-21T12:17:12;13.13;;;11.50;;
31112;SDS011;17763;48.730;9.136;2023-05-21T12:19:43;11.98;;;10.85;;
31112;SDS011;17763;48.730;9.136;2023-05-21T12:22:12;11.60;;;10.57;;
31112;SDS011;17763;48.730;9.136;2023-05-21T12:24:47;13.13;;;11.35;;
31112;SDS011;17763;48.730;9.136;2023-05-21T12:27:20;12.40;;;11.15;;
31112;SDS011;17763;48.730;9.136;2023-05-21T12:29:49;13.05;;;10.60;;
31112;SDS011;17763;48.730;9.136;2023-05-21T12:32:15;11.82;;;10.73;;
31112;SDS011;17763;48.730;9.136;2023-05-21T12:37:21;12.18;;;10.98;;
31112;SDS011;17763;48.730;9.136;2023-05-21T12:39:55;10.88;;;9.85;;
31112;SDS011;17763;48.730;9.136;2023-05-21T12:42:30;11.57;;;10.63;;
31112;SDS011;17763;48.730;9.136;2023-05-21T12:44:59;11.13;;;9.90;;
31112;SDS011;17763;48.730;9.136;2023-05-21T12:47:29;12.57;;;9.32;;
31112;SDS011;17763;48.730;9.136;2023-05-21T12:49:56;11.13;;;10.02;;
31112;SDS011;17763;48.730;9.136;2023-05-21T12:52:23;11.73;;;10.30;;
31112;SDS011;17763;48.730;9.136;2023-05-21T12:54:58;11.45;;;10.25;;
31112;SDS011;17763;48.730;9.136;2023-05-21T12:57:27;11.05;;;10.02;;
31112;SDS011;17763;48.730;9.136;2023-05-21T12:59:59;10.10;;;9.18;;
31112;SDS011;17763;48.730;9.136;2023-05-21T13:05:10;8.13;;;7.40;;
31112;SDS011;17763;48.730;9.136;2023-05-21T13:07:41;8.20;;;7.35;;
31112;SDS011;17763;48.730;9.136;2023-05-21T13:10:16;7.15;;;6.65;;
31112;SDS011;17763;48.730;9.136;2023-05-21T13:12:45;8.20;;;7.35;;
31112;SDS011;17763;48.730;9.136;2023-05-21T13:15:11;8.02;;;7.28;;
31112;SDS011;17763;48.730;9.136;2023-05-21T13:17:39;8.75;;;7.90;;
31112;SDS011;17763;48.730;9.136;2023-05-21T13:22:45;10.10;;;9.10;;
31112;SDS011;17763;48.730;9.136;2023-05-21T13:25:21;10.85;;;9.25;;
31112;SDS011;17763;48.730;9.136;2023-05-21T13:28:00;10.15;;;9.25;;
31112;SDS011;17763;48.730;9.136;2023-05-21T13:30:26;8.30;;;7.60;;
31112;SDS011;17763;48.730;9.136;2023-05-21T13:32:52;8.25;;;7.53;;
31112;SDS011;17763;48.730;9.136;2023-05-21T13:35:18;8.27;;;6.82;;
31112;SDS011;17763;48.730;9.136;2023-05-21T13:37:44;7.95;;;7.10;;
31112;SDS011;17763;48.730;9.136;2023-05-21T13:40:10;9.18;;;8.15;;
31112;SDS011;17763;48.730;9.136;2023-05-21T13:42:39;7.60;;;7.00;;
31112;SDS011;17763;48.730;9.136;2023-05-21T13:45:08;9.38;;;8.38;;
31112;SDS011;17763;48.730;9.136;2023-05-21T13:47:35;8.27;;;7.40;;
31112;SDS011;17763;48.730;9.136;2023-05-21T13:50:04;8.52;;;7.78;;
31112;SDS011;17763;48.730;9.136;2023-05-21T13:52:32;8.40;;;7.60;;
31112;SDS011;17763;48.730;9.136;2023-05-21T13:54:58;7.72;;;6.93;;
31112;SDS011;17763;48.730;9.136;2023-05-21T13:57:23;7.78;;;7.07;;
31112;SDS011;17763;48.730;9.136;2023-05-21T13:59:51;7.72;;;7.10;;
31112;SDS011;17763;48.730;9.136;2023-05-21T14:02:19;9.60;;;7.70;;
31112;SDS011;17763;48.730;9.136;2023-05-21T14:04:44;10.48;;;7.68;;
31112;SDS011;17763;48.730;9.136;2023-05-21T14:07:12;7.18;;;6.57;;
31112;SDS011;17763;48.730;9.136;2023-05-21T14:09:38;8.35;;;7.57;;
31112;SDS011;17763;48.730;9.136;2023-05-21T14:12:08;8.30;;;7.47;;
31112;SDS011;17763;48.730;9.136;2023-05-21T14:14:36;7.67;;;7.07;;
31112;SDS011;17763;48.730;9.136;2023-05-21T14:17:04;7.93;;;7.22;;
31112;SDS011;17763;48.730;9.136;2023-05-21T14:19:30;7.40;;;6.80;;
31112;SDS011;17763;48.730;9.136;2023-05-21T14:21:55;7.43;;;6.70;;
31112;SDS011;17763;48.730;9.136;2023-05-21T14:24:21;8.70;;;7.75;;
31112;SDS011;17763;48.730;9.136;2023-05-21T14:26:47;8.88;;;6.75;;
31112;SDS011;17763;48.730;9.136;2023-05-21T14:29:12;7.38;;;6.68;;
31112;SDS011;17763;48.730;9.136;2023-05-21T14:31:40;6.85;;;6.18;;
31112;SDS011;17763;48.730;9.136;2023-05-21T14:34:06;8.55;;;6.22;;
31112;SDS011;17763;48.730;9.136;2023-05-21T14:36:32;6.75;;;6.25;;
31112;SDS011;17763;48.730;9.136;2023-05-21T14:39:01;11.27;;;8.05;;
31112;SDS011;17763;48.730;9.136;2023-05-21T14:41:27;8.10;;;7.40;;
31112;SDS011;17763;48.730;9.136;2023-05-21T14:43:58;8.18;;;7.47;;
31112;SDS011;17763;48.730;9.136;2023-05-21T14:46:24;8.25;;;7.05;;
31112;SDS011;17763;48.730;9.136;2023-05-21T14:48:50;7.70;;;6.97;;
31112;SDS011;17763;48.730;9.136;2023-05-21T14:51:19;8.63;;;6.82;;
31112;SDS011;17763;48.730;9.136;2023-05-21T14:53:45;7.82;;;7.13;;
31112;SDS011;17763;48.730;9.136;2023-05-21T14:56:10;7.15;;;6.47;;
31112;SDS011;17763;48.730;9.136;2023-05-21T14:58:36;6.28;;;5.80;;
31112;SDS011;17763;48.730;9.136;2023-05-21T15:01:01;7.13;;;6.43;;
31112;SDS011;17763;48.730;9.136;2023-05-21T15:03:28;7.05;;;6.45;;
31112;SDS011;17763;48.730;9.136;2023-05-21T15:05:53;7.10;;;6.45;;
31112;SDS011;17763;48.730;9.136;2023-05-21T15:08:22;6.93;;;6.32;;
31112;SDS011;17763;48.730;9.136;2023-05-21T15:10:48;8.98;;;7.78;;
31112;SDS011;17763;48.730;9.136;2023-05-21T15:13:14;6.82;;;6.22;;
31112;SDS011;17763;48.730;9.136;2023-05-21T15:15:39;7.28;;;6.68;;
31112;SDS011;17763;48.730;9.136;2023-05-21T15:18:10;7.57;;;6.93;;
31112;SDS011;17763;48.730;9.136;2023-05-21T15:20:35;6.47;;;5.88;;
31112;SDS011;17763;48.730;9.136;2023-05-21T15:23:01;6.75;;;6.20;;
31112;SDS011;17763;48.730;9.136;2023-05-21T15:25:27;6.10;;;5.60;;
31112;SDS011;17763;48.730;9.136;2023-05-21T15:27:53;6.60;;;6.00;;